createdAt,value
2022-09-10T00:02:02.429Z,60.63
2022-09-10T00:04:29.147Z,60.49
2022-09-10T00:06:56.722Z,60.56
2022-09-10T00:09:23.503Z,60.83
2022-09-10T00:11:50.610Z,60.74
2022-09-10T00:14:21.554Z,60.69
2022-09-10T00:16:49.685Z,60.58
2022-09-10T00:19:16.978Z,60.79
2022-09-10T00:21:45.968Z,60.81
2022-09-10T00:24:14.163Z,60.75
2022-09-10T00:26:40.806Z,61.24
2022-09-10T00:29:12.107Z,60.96
2022-09-10T00:31:39.969Z,60.86
2022-09-10T00:34:07.531Z,61.11
2022-09-10T00:36:37.239Z,61.07
2022-09-10T00:39:08.493Z,61.08
2022-09-10T00:41:39.556Z,61.04
2022-09-10T00:44:37.531Z,61.33
2022-09-10T00:47:06.305Z,61.16
2022-09-10T00:49:39.392Z,61.62
2022-09-10T00:52:07.826Z,61.38
2022-09-10T00:54:36.210Z,61.48
2022-09-10T00:57:12.616Z,61.94
2022-09-10T00:59:44.863Z,61.71
2022-09-10T01:02:12.299Z,61.91
2022-09-10T01:04:40.517Z,61.83
2022-09-10T01:07:09.927Z,62.12
2022-09-10T01:09:38.532Z,62.17
2022-09-10T01:12:57.457Z,61.89
2022-09-10T01:15:46.254Z,61.99
2022-09-10T01:18:52.279Z,61.81
2022-09-10T01:21:32.019Z,61.97
2022-09-10T01:24:04.392Z,62.04
2022-09-10T01:26:56.588Z,61.94
2022-09-10T01:29:46.029Z,62.02
2022-09-10T01:32:17.696Z,61.86
2022-09-10T01:35:17.125Z,62.15
2022-09-10T01:37:59.425Z,61.83
2022-09-10T01:40:30.777Z,61.93
2022-09-10T01:43:02.620Z,61.85
2022-09-10T01:45:32.855Z,61.83
2022-09-10T01:48:16.267Z,61.96
2022-09-10T01:50:51.679Z,62.11
2022-09-10T01:53:36.467Z,62.11
2022-09-10T01:56:35.506Z,62.00
2022-09-10T01:59:14.236Z,61.85
2022-09-10T02:01:47.339Z,62.03
2022-09-10T02:04:15.961Z,62.16
2022-09-10T02:06:46.810Z,61.92
2022-09-10T02:09:16.159Z,61.94
2022-09-10T02:11:54.361Z,62.16
2022-09-10T02:14:22.274Z,62.08
2022-09-10T02:17:00.961Z,61.81
2022-09-10T02:19:28.034Z,61.92
2022-09-10T02:21:57.005Z,61.78
2022-09-10T02:24:23.911Z,62.00
2022-09-10T02:26:51.326Z,61.97
2022-09-10T02:29:19.409Z,62.19
2022-09-10T02:31:49.730Z,62.02
2022-09-10T02:34:16.346Z,62.22
2022-09-10T02:36:43.543Z,62.42
2022-09-10T02:39:10.382Z,62.30
2022-09-10T02:41:38.183Z,62.45
2022-09-10T02:44:04.827Z,62.43
2022-09-10T02:46:31.903Z,62.35
2022-09-10T02:48:59.041Z,62.01
2022-09-10T02:51:26.306Z,62.21
2022-09-10T02:53:53.404Z,62.42
2022-09-10T02:56:20.125Z,62.40
2022-09-10T02:58:46.888Z,62.52
2022-09-10T03:01:16.344Z,62.56
2022-09-10T03:03:43.037Z,62.74
2022-09-10T03:06:12.569Z,62.61
2022-09-10T03:08:39.297Z,62.54
2022-09-10T03:11:07.573Z,62.54
2022-09-10T03:13:35.463Z,62.37
2022-09-10T03:16:05.959Z,62.78
2022-09-10T03:18:32.671Z,62.82
2022-09-10T03:21:15.957Z,62.75
2022-09-10T03:23:44.922Z,62.84
2022-09-10T03:26:12.109Z,62.90
2022-09-10T03:28:39.004Z,62.84
2022-09-10T03:31:06.029Z,63.40
2022-09-10T03:33:33.581Z,63.16
2022-09-10T03:36:00.884Z,63.61
2022-09-10T03:38:27.883Z,63.57
2022-09-10T03:40:55.149Z,63.55
2022-09-10T03:43:22.531Z,63.59
2022-09-10T03:45:52.868Z,63.75
2022-09-10T03:48:20.593Z,63.40
2022-09-10T03:50:48.166Z,63.38
2022-09-10T03:53:15.911Z,63.61
2022-09-10T03:55:47.140Z,63.55
2022-09-10T03:58:14.939Z,63.60
2022-09-10T04:00:43.178Z,63.64
2022-09-10T04:03:11.118Z,63.57
2022-09-10T04:05:45.118Z,63.84
2022-09-10T04:08:15.457Z,63.66
2022-09-10T04:10:44.153Z,63.74
2022-09-10T04:13:11.250Z,63.79
2022-09-10T04:15:38.613Z,63.83
2022-09-10T04:18:06.469Z,63.88
2022-09-10T04:20:35.105Z,63.91
2022-09-10T04:23:03.026Z,63.98
2022-09-10T04:25:30.035Z,63.81
2022-09-10T04:27:56.632Z,63.89
2022-09-10T04:30:23.443Z,64.02
2022-09-10T04:32:50.457Z,64.01
2022-09-10T04:35:17.190Z,64.17
2022-09-10T04:37:43.849Z,64.21
2022-09-10T04:40:13.012Z,64.20
2022-09-10T04:42:39.742Z,64.08
2022-09-10T04:45:07.289Z,64.17
2022-09-10T04:47:34.445Z,64.11
2022-09-10T04:50:01.693Z,64.29
2022-09-10T04:52:29.058Z,64.40
2022-09-10T04:54:56.000Z,64.51
2022-09-10T04:57:23.678Z,64.61
2022-09-10T04:59:50.378Z,64.85
2022-09-10T05:02:17.030Z,64.60
2022-09-10T05:04:44.248Z,64.84
2022-09-10T05:07:10.881Z,64.78
2022-09-10T05:09:37.729Z,64.70
2022-09-10T05:12:04.505Z,64.71
2022-09-10T05:14:31.213Z,64.69
2022-09-10T05:16:58.371Z,64.99
2022-09-10T05:19:25.179Z,64.67
2022-09-10T05:21:51.809Z,65.15
2022-09-10T05:24:18.463Z,65.16
2022-09-10T05:26:46.573Z,65.04
2022-09-10T05:29:14.121Z,65.12
2022-09-10T05:31:41.253Z,65.11
2022-09-10T05:34:08.505Z,65.34
2022-09-10T05:36:35.622Z,65.31
2022-09-10T05:39:03.872Z,65.44
2022-09-10T05:41:31.289Z,65.38
2022-09-10T05:43:58.418Z,65.15
2022-09-10T05:46:25.498Z,65.04
2022-09-10T05:48:55.818Z,65.13
2022-09-10T05:51:22.701Z,65.19
2022-09-10T05:53:50.079Z,65.26
2022-09-10T05:56:16.898Z,65.22
2022-09-10T05:58:45.360Z,65.10
2022-09-10T06:01:12.455Z,65.16
2022-09-10T06:03:40.500Z,64.72
2022-09-10T06:06:07.572Z,64.76
2022-09-10T06:08:35.644Z,64.79
2022-09-10T06:11:05.931Z,64.71
2022-09-10T06:13:34.551Z,64.69
2022-09-10T06:16:03.212Z,64.76
2022-09-10T06:18:30.929Z,64.68
2022-09-10T06:21:09.267Z,64.79
2022-09-10T06:23:39.391Z,64.62
2022-09-10T06:26:09.863Z,64.55
2022-09-10T06:28:36.847Z,64.45
2022-09-10T06:31:04.508Z,64.35
2022-09-10T06:33:32.212Z,64.35
2022-09-10T06:36:00.763Z,64.49
2022-09-10T06:38:37.541Z,64.24
2022-09-10T06:41:07.057Z,64.17
2022-09-10T06:43:36.757Z,64.26
2022-09-10T06:46:20.263Z,64.45
2022-09-10T06:49:01.090Z,64.20
2022-09-10T06:51:27.770Z,64.40
2022-09-10T06:53:54.404Z,64.26
2022-09-10T06:56:21.596Z,64.44
2022-09-10T06:58:48.413Z,64.17
2022-09-10T07:01:17.748Z,63.93
2022-09-10T07:03:46.582Z,63.51
2022-09-10T07:06:17.839Z,63.39
2022-09-10T07:08:44.920Z,63.21
2022-09-10T07:11:13.651Z,63.11
2022-09-10T07:13:41.586Z,62.79
2022-09-10T07:16:08.998Z,62.75
2022-09-10T07:18:36.515Z,62.26
2022-09-10T07:21:11.468Z,62.44
2022-09-10T07:23:42.698Z,62.19
2022-09-10T07:26:12.071Z,62.27
2022-09-10T07:28:40.499Z,61.74
2022-09-10T07:31:18.844Z,61.53
2022-09-10T07:33:45.951Z,61.27
2022-09-10T07:36:12.728Z,60.94
2022-09-10T07:38:40.997Z,61.00
2022-09-10T07:41:12.347Z,61.25
2022-09-10T07:43:43.764Z,60.97
2022-09-10T07:46:16.484Z,61.12
2022-09-10T07:48:43.141Z,61.03
2022-09-10T07:51:11.664Z,60.57
2022-09-10T07:53:38.812Z,60.64
2022-09-10T07:56:07.938Z,60.58
2022-09-10T07:58:36.187Z,60.00
2022-09-10T08:01:09.255Z,59.68
2022-09-10T08:03:36.034Z,59.17
2022-09-10T08:06:04.040Z,59.17
2022-09-10T08:08:35.651Z,58.73
2022-09-10T08:11:13.261Z,58.02
2022-09-10T08:13:48.267Z,57.67
2022-09-10T08:16:19.074Z,57.01
2022-09-10T08:18:51.312Z,56.89
2022-09-10T08:21:19.127Z,56.86
2022-09-10T08:23:59.689Z,56.72
2022-09-10T08:28:55.966Z,55.72
2022-09-10T08:31:23.211Z,55.66
2022-09-10T08:33:53.705Z,55.25
2022-09-10T08:36:22.081Z,55.32
2022-09-10T08:38:55.140Z,54.39
2022-09-10T08:41:44.896Z,53.51
2022-09-10T08:44:16.261Z,52.84
2022-09-10T08:46:48.765Z,52.72
2022-09-10T08:49:36.792Z,52.60
2022-09-10T08:52:16.742Z,52.67
2022-09-10T08:54:54.841Z,51.84
2022-09-10T08:57:32.872Z,51.45
2022-09-10T09:00:01.823Z,51.09
2022-09-10T09:03:02.451Z,50.96
2022-09-10T09:05:38.423Z,50.82
2022-09-10T09:08:06.393Z,50.69
2022-09-10T09:10:46.647Z,50.60
2022-09-10T09:13:28.955Z,50.74
2022-09-10T09:16:01.479Z,50.74
2022-09-10T09:18:48.132Z,50.52
2022-09-10T09:21:23.799Z,50.68
2022-09-10T09:24:12.667Z,50.92
2022-09-10T09:26:42.046Z,50.97
2022-09-10T09:29:15.231Z,51.18
2022-09-10T09:31:47.683Z,51.07
2022-09-10T09:34:29.350Z,51.12
2022-09-10T09:37:01.462Z,51.07
2022-09-10T09:39:36.360Z,51.03
2022-09-10T09:42:25.162Z,50.77
2022-09-10T09:45:08.386Z,50.56
2022-09-10T09:47:35.194Z,50.53
2022-09-10T09:50:01.854Z,50.53
2022-09-10T09:52:31.930Z,48.94
2022-09-10T09:55:14.720Z,48.87
2022-09-10T09:57:43.131Z,47.12
2022-09-10T10:00:33.049Z,46.43
2022-09-10T10:03:20.725Z,45.60
2022-09-10T10:05:48.803Z,46.30
2022-09-10T10:08:34.305Z,44.70
2022-09-10T10:11:01.618Z,43.08
2022-09-10T10:13:43.284Z,40.35
2022-09-10T10:16:23.671Z,38.59
2022-09-10T10:18:50.845Z,36.73
2022-09-10T10:21:17.488Z,35.32
2022-09-10T10:23:44.778Z,35.00
2022-09-10T10:26:20.492Z,34.69
2022-09-10T10:28:56.836Z,34.63
2022-09-10T10:31:24.208Z,35.02
2022-09-10T10:33:56.634Z,34.81
2022-09-10T10:36:39.522Z,34.46
2022-09-10T10:39:40.389Z,32.96
2022-09-10T10:42:35.553Z,32.03
2022-09-10T10:45:24.119Z,29.82
2022-09-10T10:48:16.148Z,29.65
2022-09-10T10:50:55.711Z,29.52
2022-09-10T10:53:31.410Z,28.86
2022-09-10T10:55:58.610Z,29.14
2022-09-10T10:58:51.090Z,30.02
2022-09-10T11:01:22.064Z,31.03
2022-09-10T11:04:11.661Z,31.73
2022-09-10T11:06:45.147Z,32.43
2022-09-10T11:09:14.671Z,31.95
2022-09-10T11:12:03.819Z,30.74
2022-09-10T11:14:33.529Z,29.44
2022-09-10T11:17:06.812Z,29.52
2022-09-10T11:19:43.265Z,29.84
2022-09-10T11:22:22.020Z,29.42
2022-09-10T11:24:51.328Z,30.07
2022-09-10T11:27:29.218Z,30.05
2022-09-10T11:30:04.744Z,31.31
2022-09-10T11:32:35.202Z,31.49
2022-09-10T11:35:13.411Z,32.17
2022-09-10T11:38:01.347Z,31.85
2022-09-10T11:41:00.457Z,31.76
2022-09-10T11:43:49.054Z,31.81
2022-09-10T11:46:22.037Z,32.62
2022-09-10T11:48:51.498Z,32.84
2022-09-10T11:51:31.359Z,32.96
2022-09-10T11:53:58.438Z,32.78
2022-09-10T11:56:38.029Z,32.30
2022-09-10T11:59:20.874Z,31.33
2022-09-10T12:02:33.076Z,29.33
2022-09-10T12:05:18.435Z,28.04
2022-09-10T12:08:08.019Z,27.28
2022-09-10T12:11:07.645Z,26.82
2022-09-10T12:13:39.500Z,26.95
2022-09-10T12:16:22.715Z,27.57
2022-09-10T12:18:53.039Z,29.25
2022-09-10T12:21:28.682Z,29.51
2022-09-10T12:23:56.447Z,29.11
2022-09-10T12:26:23.919Z,29.27
2022-09-10T12:28:53.234Z,29.51
2022-09-10T12:31:21.934Z,29.89
2022-09-10T12:33:48.535Z,29.85
2022-09-10T12:36:35.775Z,31.29
2022-09-10T12:39:21.092Z,31.21
2022-09-10T12:41:47.681Z,30.85
2022-09-10T12:44:29.298Z,30.53
2022-09-10T12:47:15.315Z,30.84
2022-09-10T12:49:51.919Z,31.99
2022-09-10T12:52:36.392Z,31.79
2022-09-10T12:55:03.001Z,31.92
2022-09-10T12:57:52.466Z,32.57
2022-09-10T13:00:23.952Z,31.25
2022-09-10T13:03:09.609Z,30.72
2022-09-10T13:05:44.992Z,29.74
2022-09-10T13:08:45.091Z,28.21
2022-09-10T13:14:18.885Z,28.51
2022-09-10T13:16:50.463Z,29.09
2022-09-10T13:19:19.930Z,29.23
2022-09-10T13:21:48.212Z,28.89
2022-09-10T13:24:36.356Z,27.61
2022-09-10T13:27:22.614Z,26.94
2022-09-10T13:30:11.700Z,25.33
2022-09-10T13:33:05.511Z,25.15
2022-09-10T13:35:50.620Z,26.24
2022-09-10T13:38:33.184Z,26.71
2022-09-10T13:41:16.642Z,27.38
2022-09-10T13:44:27.083Z,28.62
2022-09-10T13:47:00.057Z,29.09
2022-09-10T13:49:55.423Z,30.15
2022-09-10T13:52:31.072Z,30.82
2022-09-10T13:55:00.639Z,30.99
2022-09-10T13:58:04.466Z,31.53
2022-09-10T14:00:41.193Z,31.96
2022-09-10T14:03:16.714Z,32.54
2022-09-10T14:05:50.850Z,33.44
2022-09-10T14:08:23.787Z,33.44
2022-09-10T14:11:08.153Z,33.73
2022-09-10T14:14:16.988Z,34.51
2022-09-10T14:16:52.724Z,34.49
2022-09-10T14:19:22.963Z,35.31
2022-09-10T14:21:51.762Z,35.26
2022-09-10T14:24:33.750Z,36.01
2022-09-10T14:27:27.838Z,35.95
2022-09-10T14:29:56.633Z,36.24
2022-09-10T14:32:25.847Z,36.41
2022-09-10T14:34:52.608Z,36.95
2022-09-10T14:37:28.667Z,37.56
2022-09-10T14:39:56.712Z,38.30
2022-09-10T14:42:33.031Z,38.09
2022-09-10T14:45:00.109Z,38.53
2022-09-10T14:47:35.082Z,38.80
2022-09-10T14:50:38.731Z,38.84
2022-09-10T14:53:05.329Z,38.71
2022-09-10T14:55:32.776Z,38.90
2022-09-10T14:57:59.851Z,39.63
2022-09-10T15:00:26.759Z,39.97
2022-09-10T15:02:58.763Z,40.11
2022-09-10T15:05:25.524Z,40.13
2022-09-10T15:07:52.152Z,40.53
2022-09-10T15:10:18.854Z,41.27
2022-09-10T15:12:50.232Z,41.35
2022-09-10T15:15:17.930Z,41.63
2022-09-10T15:17:44.851Z,42.03
2022-09-10T15:20:17.097Z,42.43
2022-09-10T15:22:44.704Z,42.74
2022-09-10T15:25:43.525Z,43.38
2022-09-10T15:28:10.371Z,43.35
2022-09-10T15:30:37.061Z,43.72
2022-09-10T15:33:07.518Z,44.19
2022-09-10T15:35:34.263Z,44.06
2022-09-10T15:38:03.981Z,44.38
2022-09-10T15:40:31.870Z,44.20
2022-09-10T15:42:58.506Z,44.05
2022-09-10T15:45:25.353Z,44.20
2022-09-10T15:47:52.065Z,44.01
2022-09-10T15:50:20.290Z,43.97
2022-09-10T15:52:47.531Z,44.04
2022-09-10T15:55:14.317Z,43.84
2022-09-10T15:57:41.386Z,43.92
2022-09-10T16:00:08.716Z,43.89
2022-09-10T16:02:35.489Z,44.28
2022-09-10T16:05:02.245Z,44.19
2022-09-10T16:07:29.568Z,44.36
2022-09-10T16:09:58.912Z,44.66
2022-09-10T16:12:28.293Z,44.90
2022-09-10T16:15:01.308Z,45.18
2022-09-10T16:17:28.649Z,45.39
2022-09-10T16:19:56.799Z,45.71
2022-09-10T16:22:24.133Z,46.58
2022-09-10T16:24:50.761Z,46.92
2022-09-10T16:27:18.713Z,47.16
2022-09-10T16:29:46.414Z,47.95
2022-09-10T16:32:13.516Z,48.31
2022-09-10T16:34:41.972Z,48.70
2022-09-10T16:37:08.740Z,49.14
2022-09-10T16:39:36.300Z,49.03
2022-09-10T16:42:03.457Z,49.67
2022-09-10T16:44:31.528Z,50.32
2022-09-10T16:46:59.431Z,50.60
2022-09-10T16:49:27.534Z,50.94
2022-09-10T16:51:55.002Z,51.18
2022-09-10T16:54:23.207Z,51.37
2022-09-10T16:56:50.516Z,51.49
2022-09-10T16:59:20.411Z,51.67
2022-09-10T17:01:48.429Z,52.05
2022-09-10T17:04:20.456Z,52.30
2022-09-10T17:06:49.047Z,52.42
2022-09-10T17:09:15.943Z,52.41
2022-09-10T17:11:42.600Z,53.05
2022-09-10T17:14:09.313Z,52.89
2022-09-10T17:16:40.003Z,53.07
2022-09-10T17:19:15.286Z,53.89
2022-09-10T17:21:44.541Z,53.96
2022-09-10T17:24:13.200Z,53.73
2022-09-10T17:26:40.980Z,53.92
2022-09-10T17:29:10.491Z,54.82
2022-09-10T17:31:37.256Z,54.67
2022-09-10T17:34:04.746Z,55.05
2022-09-10T17:36:32.339Z,55.54
2022-09-10T17:38:59.353Z,55.38
2022-09-10T17:41:29.712Z,55.84
2022-09-10T17:43:58.698Z,56.13
2022-09-10T17:46:27.248Z,56.27
2022-09-10T17:48:54.625Z,56.84
2022-09-10T17:51:27.132Z,57.06
2022-09-10T17:53:55.576Z,57.11
2022-09-10T17:56:24.173Z,57.75
2022-09-10T17:58:57.368Z,58.01
2022-09-10T18:01:30.095Z,58.44
2022-09-10T18:03:57.084Z,58.76
2022-09-10T18:06:29.370Z,58.83
2022-09-10T18:09:00.684Z,59.02
2022-09-10T18:11:30.297Z,59.31
2022-09-10T18:13:58.293Z,59.58
2022-09-10T18:16:28.595Z,60.08
2022-09-10T18:19:04.619Z,60.38
2022-09-10T18:21:34.147Z,60.42
2022-09-10T18:24:05.404Z,60.12
2022-09-10T18:26:35.129Z,60.51
2022-09-10T18:29:03.948Z,60.42
2022-09-10T18:31:34.110Z,59.97
2022-09-10T18:34:05.447Z,60.16
2022-09-10T18:36:32.206Z,59.93
2022-09-10T18:39:02.713Z,59.80
2022-09-10T18:41:32.593Z,60.00
2022-09-10T18:44:02.191Z,59.71
2022-09-10T18:46:32.350Z,59.72
2022-09-10T18:48:59.983Z,59.78
2022-09-10T18:51:29.774Z,59.79
2022-09-10T18:53:58.380Z,59.98
2022-09-10T18:56:27.649Z,59.73
2022-09-10T18:59:00.541Z,59.83
2022-09-10T19:01:29.536Z,59.76
2022-09-10T19:03:57.666Z,59.92
2022-09-10T19:06:29.744Z,59.89
2022-09-10T19:08:59.415Z,60.12
2022-09-10T19:11:27.835Z,60.08
2022-09-10T19:13:56.743Z,60.04
2022-09-10T19:16:27.547Z,60.19
2022-09-10T19:18:59.704Z,60.29
2022-09-10T19:21:28.880Z,60.40
2022-09-10T19:23:59.443Z,60.34
2022-09-10T19:26:29.222Z,60.59
2022-09-10T19:29:00.201Z,60.76
2022-09-10T19:31:28.629Z,60.96
2022-09-10T19:33:57.680Z,60.87
2022-09-10T19:36:27.588Z,60.97
2022-09-10T19:38:55.157Z,61.11
2022-09-10T19:41:23.493Z,61.19
2022-09-10T19:43:51.966Z,61.19
2022-09-10T19:46:20.246Z,61.20
2022-09-10T19:48:47.725Z,61.43
2022-09-10T19:51:17.631Z,61.51
2022-09-10T19:53:45.074Z,61.57
2022-09-10T19:56:20.450Z,61.89
2022-09-10T19:58:50.095Z,62.13
2022-09-10T20:01:26.134Z,62.04
2022-09-10T20:03:54.336Z,62.18
2022-09-10T20:06:25.612Z,62.17
2022-09-10T20:08:52.921Z,62.27
2022-09-10T20:11:24.623Z,62.48
2022-09-10T20:14:02.292Z,62.56
2022-09-10T20:16:31.623Z,62.60
2022-09-10T20:18:58.564Z,62.67
2022-09-10T20:21:31.063Z,62.75
2022-09-10T20:23:59.039Z,62.96
2022-09-10T20:26:27.666Z,63.01
2022-09-10T20:29:04.028Z,63.18
2022-09-10T20:31:33.986Z,63.02
2022-09-10T20:34:05.660Z,63.04
2022-09-10T20:36:34.992Z,63.33
2022-09-10T20:39:02.131Z,63.17
2022-09-10T20:41:31.970Z,63.39
2022-09-10T20:43:59.581Z,63.50
2022-09-10T20:46:28.552Z,63.10
2022-09-10T20:49:03.275Z,62.90
2022-09-10T20:51:40.628Z,63.24
2022-09-10T20:54:14.684Z,63.13
2022-09-10T20:56:41.510Z,63.15
2022-09-10T20:59:08.375Z,63.31
2022-09-10T21:01:35.278Z,63.32
2022-09-10T21:04:03.136Z,63.08
2022-09-10T21:06:32.349Z,63.25
2022-09-10T21:09:00.226Z,63.00
2022-09-10T21:11:29.670Z,63.15
2022-09-10T21:13:58.475Z,63.08
2022-09-10T21:16:32.285Z,63.26
2022-09-10T21:19:01.223Z,63.22
2022-09-10T21:21:30.416Z,63.02
2022-09-10T21:24:01.415Z,63.28
2022-09-10T21:26:30.879Z,63.02
2022-09-10T21:28:59.881Z,62.97
2022-09-10T21:31:27.515Z,63.34
2022-09-10T21:34:00.616Z,63.24
2022-09-10T21:36:30.197Z,63.39
2022-09-10T21:39:00.457Z,63.55
2022-09-10T21:41:47.945Z,63.66
2022-09-10T21:44:21.135Z,63.75
2022-09-10T21:46:52.307Z,63.89
2022-09-10T21:49:20.307Z,63.66
2022-09-10T21:51:47.038Z,63.73
2022-09-10T21:54:17.162Z,63.84
2022-09-10T21:56:43.845Z,63.70
2022-09-10T21:59:12.388Z,63.80
2022-09-10T22:01:43.943Z,63.92
2022-09-10T22:04:11.939Z,63.84
2022-09-10T22:06:39.134Z,64.04
2022-09-10T22:09:09.556Z,63.84
2022-09-10T22:11:45.910Z,63.73
2022-09-10T22:14:18.106Z,63.75
2022-09-10T22:16:48.378Z,63.88
2022-09-10T22:19:19.895Z,64.32
2022-09-10T22:21:47.222Z,63.78
2022-09-10T22:24:14.864Z,63.84
2022-09-10T22:26:44.013Z,63.96
2022-09-10T22:29:12.505Z,64.19
2022-09-10T22:31:39.170Z,64.47
2022-09-10T22:34:13.522Z,64.52
2022-09-10T22:36:41.740Z,64.63
2022-09-10T22:39:14.393Z,64.71
2022-09-10T22:41:41.688Z,65.20
2022-09-10T22:44:08.931Z,65.27
2022-09-10T22:46:36.949Z,65.17
2022-09-10T22:49:04.643Z,65.33
2022-09-10T22:51:37.676Z,65.16
2022-09-10T22:54:05.532Z,65.54
2022-09-10T22:56:33.188Z,65.54
2022-09-10T22:59:00.286Z,65.66
2022-09-10T23:01:29.906Z,65.96
2022-09-10T23:04:01.337Z,65.68
2022-09-10T23:06:30.877Z,65.93
2022-09-10T23:09:03.654Z,65.91
2022-09-10T23:11:32.612Z,66.04
2022-09-10T23:14:02.488Z,65.97
2022-09-10T23:16:49.791Z,66.25
2022-09-10T23:19:20.078Z,66.21
2022-09-10T23:21:51.356Z,66.25
2022-09-10T23:24:20.563Z,66.49
2022-09-10T23:26:47.368Z,66.18
2022-09-10T23:29:18.671Z,66.33
2022-09-10T23:31:46.326Z,66.42
2022-09-10T23:34:18.794Z,66.40
2022-09-10T23:36:47.460Z,66.40
2022-09-10T23:39:20.171Z,66.29
2022-09-10T23:41:48.409Z,66.37
2022-09-10T23:44:15.165Z,66.22
2022-09-10T23:46:41.962Z,66.27
2022-09-10T23:49:09.027Z,66.47
2022-09-10T23:51:36.723Z,66.20
2022-09-10T23:54:03.683Z,66.01
2022-09-10T23:56:30.636Z,66.12
2022-09-10T23:58:59.617Z,65.83
